createdAt,value
2023-05-19T00:01:49.785Z,5.03
2023-05-19T00:04:16.544Z,5.60
2023-05-19T00:06:44.712Z,5.27
2023-05-19T00:09:12.250Z,6.30
2023-05-19T00:11:39.957Z,6.27
2023-05-19T00:14:09.318Z,5.37
2023-05-19T00:16:40.527Z,5.37
2023-05-19T00:19:11.987Z,4.90
2023-05-19T00:21:38.917Z,5.30
2023-05-19T00:24:06.264Z,5.70
2023-05-19T00:26:32.829Z,5.97
2023-05-19T00:29:03.741Z,5.40
2023-05-19T00:31:31.574Z,5.30
2023-05-19T00:33:58.079Z,5.43
2023-05-19T00:36:25.713Z,6.70
2023-05-19T00:38:52.207Z,6.17
2023-05-19T00:41:18.805Z,5.43
2023-05-19T00:43:45.615Z,5.77
2023-05-19T00:46:12.115Z,5.73
2023-05-19T00:48:38.583Z,5.73
2023-05-19T00:51:06.372Z,5.57
2023-05-19T00:53:34.510Z,5.60
2023-05-19T00:56:02.512Z,6.00
2023-05-19T00:58:30.794Z,5.97
2023-05-19T01:01:07.281Z,5.90
2023-05-19T01:03:35.934Z,5.97
2023-05-19T01:06:05.846Z,6.03
2023-05-19T01:08:33.367Z,6.20
2023-05-19T01:11:00.231Z,6.10
2023-05-19T01:13:30.647Z,5.97
2023-05-19T01:16:06.972Z,6.23
2023-05-19T01:18:39.819Z,6.80
2023-05-19T01:21:26.098Z,6.20
2023-05-19T01:24:07.040Z,5.77
2023-05-19T01:27:03.651Z,6.00
2023-05-19T01:29:42.594Z,6.70
2023-05-19T01:32:11.902Z,6.23
2023-05-19T01:34:42.573Z,6.43
2023-05-19T01:37:09.828Z,5.97
2023-05-19T01:39:37.190Z,5.83
2023-05-19T01:42:04.652Z,7.37
2023-05-19T01:44:32.661Z,6.43
2023-05-19T01:46:59.942Z,7.13
2023-05-19T01:49:26.397Z,6.07
2023-05-19T01:51:54.085Z,6.90
2023-05-19T01:54:22.020Z,7.07
2023-05-19T01:57:15.826Z,6.50
2023-05-19T02:00:07.767Z,6.07
2023-05-19T02:02:59.724Z,6.37
2023-05-19T02:05:30.942Z,6.97
2023-05-19T02:08:06.076Z,6.27
2023-05-19T02:10:36.728Z,6.93
2023-05-19T02:13:06.794Z,5.87
2023-05-19T02:15:42.524Z,6.97
2023-05-19T02:18:12.342Z,8.07
2023-05-19T02:20:39.984Z,7.33
2023-05-19T02:23:06.860Z,7.30
2023-05-19T02:25:33.404Z,6.00
2023-05-19T02:28:00.248Z,7.47
2023-05-19T02:30:31.691Z,6.93
2023-05-19T02:33:00.480Z,6.77
2023-05-19T02:35:27.873Z,6.77
2023-05-19T02:37:54.300Z,7.00
2023-05-19T02:40:21.420Z,7.03
2023-05-19T02:42:47.842Z,7.40
2023-05-19T02:45:14.674Z,7.70
2023-05-19T02:47:41.535Z,6.40
2023-05-19T02:50:08.713Z,6.63
2023-05-19T02:52:35.279Z,7.53
2023-05-19T02:55:01.779Z,7.10
2023-05-19T02:57:31.517Z,7.47
2023-05-19T02:59:57.994Z,7.13
2023-05-19T03:02:24.401Z,7.73
2023-05-19T03:04:51.507Z,7.93
2023-05-19T03:07:17.913Z,8.87
2023-05-19T03:09:44.334Z,7.60
2023-05-19T03:12:10.871Z,7.43
2023-05-19T03:14:38.493Z,8.20
2023-05-19T03:17:07.662Z,7.67
2023-05-19T03:19:34.333Z,8.07
2023-05-19T03:22:00.920Z,8.20
2023-05-19T03:24:27.465Z,8.90
2023-05-19T03:26:54.786Z,7.67
2023-05-19T03:29:21.722Z,9.20
2023-05-19T03:31:48.416Z,8.60
2023-05-19T03:34:16.236Z,8.70
2023-05-19T03:36:43.038Z,8.93
2023-05-19T03:39:14.380Z,7.90
2023-05-19T03:41:40.797Z,8.27
2023-05-19T03:44:07.245Z,8.73
2023-05-19T03:46:33.748Z,7.33
2023-05-19T03:49:28.375Z,7.63
2023-05-19T03:51:58.042Z,8.97
2023-05-19T03:54:32.187Z,7.43
2023-05-19T03:56:58.666Z,8.67
2023-05-19T03:59:25.151Z,7.63
2023-05-19T04:01:52.678Z,8.53
2023-05-19T04:04:19.211Z,8.27
2023-05-19T04:06:45.673Z,7.63
2023-05-19T04:09:13.740Z,8.57
2023-05-19T04:11:40.874Z,8.73
2023-05-19T04:14:08.358Z,9.50
2023-05-19T04:16:35.868Z,9.40
2023-05-19T04:19:02.570Z,9.33
2023-05-19T04:21:29.065Z,8.77
2023-05-19T04:23:55.643Z,8.73
2023-05-19T04:26:22.625Z,9.03
2023-05-19T04:28:49.729Z,8.20
2023-05-19T04:31:16.979Z,8.30
2023-05-19T04:33:43.556Z,8.73
2023-05-19T04:36:11.382Z,9.83
2023-05-19T04:38:40.310Z,8.10
2023-05-19T04:41:12.093Z,9.33
2023-05-19T04:43:41.853Z,9.53
2023-05-19T04:46:13.182Z,9.93
2023-05-19T04:48:41.034Z,8.13
2023-05-19T04:51:07.495Z,9.63
2023-05-19T04:53:34.209Z,9.93
2023-05-19T04:56:02.031Z,9.17
2023-05-19T04:58:30.402Z,8.90
2023-05-19T05:00:58.482Z,9.80
2023-05-19T05:03:26.095Z,9.53
2023-05-19T05:05:52.796Z,9.07
2023-05-19T05:08:23.293Z,9.47
2023-05-19T05:10:52.437Z,9.37
2023-05-19T05:13:22.274Z,9.70
2023-05-19T05:15:49.485Z,9.60
2023-05-19T05:18:16.232Z,8.63
2023-05-19T05:20:43.460Z,9.07
2023-05-19T05:23:14.502Z,9.37
2023-05-19T05:25:44.402Z,9.60
2023-05-19T05:28:11.473Z,9.40
2023-05-19T05:30:38.055Z,8.87
2023-05-19T05:33:06.562Z,9.13
2023-05-19T05:35:36.595Z,9.40
2023-05-19T05:38:04.187Z,8.90
2023-05-19T05:40:30.948Z,9.03
2023-05-19T05:42:58.927Z,9.03
2023-05-19T05:45:28.545Z,9.07
2023-05-19T05:47:55.589Z,8.20
2023-05-19T05:50:23.193Z,8.63
2023-05-19T05:52:50.893Z,8.13
2023-05-19T05:55:18.365Z,8.97
2023-05-19T05:57:45.059Z,8.43
2023-05-19T06:00:17.967Z,9.00
2023-05-19T06:02:51.719Z,7.67
2023-05-19T06:05:19.780Z,8.13
2023-05-19T06:07:48.051Z,8.43
2023-05-19T06:10:19.656Z,8.63
2023-05-19T06:12:47.044Z,8.00
2023-05-19T06:15:13.725Z,8.57
2023-05-19T06:17:42.835Z,7.77
2023-05-19T06:20:10.089Z,7.77
2023-05-19T06:22:37.110Z,7.80
2023-05-19T06:25:05.734Z,8.47
2023-05-19T06:27:34.755Z,7.70
2023-05-19T06:30:02.300Z,6.90
2023-05-19T06:32:32.651Z,7.17
2023-05-19T06:35:00.187Z,7.40
2023-05-19T06:37:26.746Z,7.87
2023-05-19T06:39:53.759Z,7.20
2023-05-19T06:42:22.530Z,7.27
2023-05-19T06:44:56.728Z,7.20
2023-05-19T06:47:23.372Z,7.53
2023-05-19T06:49:54.817Z,6.20
2023-05-19T06:52:24.433Z,6.50
2023-05-19T06:54:51.016Z,6.50
2023-05-19T06:57:17.631Z,6.70
2023-05-19T06:59:46.546Z,6.93
2023-05-19T07:02:13.878Z,6.70
2023-05-19T07:04:40.981Z,5.90
2023-05-19T07:07:07.688Z,6.50
2023-05-19T07:09:34.736Z,6.70
2023-05-19T07:12:02.482Z,6.10
2023-05-19T07:14:29.740Z,6.20
2023-05-19T07:16:56.411Z,6.10
2023-05-19T07:19:24.112Z,6.43
2023-05-19T07:21:51.433Z,6.30
2023-05-19T07:24:17.957Z,6.93
2023-05-19T07:26:45.120Z,5.70
2023-05-19T07:29:11.548Z,5.87
2023-05-19T07:31:38.021Z,6.10
2023-05-19T07:34:04.544Z,5.80
2023-05-19T07:36:31.271Z,5.60
2023-05-19T07:38:57.891Z,6.20
2023-05-19T07:41:24.334Z,5.87
2023-05-19T07:43:50.775Z,5.97
2023-05-19T07:46:17.385Z,5.87
2023-05-19T07:48:44.137Z,5.70
2023-05-19T07:51:12.595Z,5.43
2023-05-19T07:53:39.266Z,5.97
2023-05-19T07:56:05.817Z,5.20
2023-05-19T07:58:32.272Z,6.27
2023-05-19T08:00:59.313Z,6.53
2023-05-19T08:03:26.843Z,5.47
2023-05-19T08:05:53.428Z,5.57
2023-05-19T08:08:19.939Z,6.67
2023-05-19T08:10:46.486Z,6.07
2023-05-19T08:13:12.949Z,5.80
2023-05-19T08:15:39.611Z,5.33
2023-05-19T08:18:06.235Z,5.23
2023-05-19T08:20:34.084Z,4.33
2023-05-19T08:23:00.776Z,5.40
2023-05-19T08:25:27.467Z,4.47
2023-05-19T08:27:53.982Z,4.67
2023-05-19T08:30:20.494Z,4.57
2023-05-19T08:32:47.368Z,5.00
2023-05-19T08:35:13.976Z,4.93
2023-05-19T08:37:40.909Z,5.00
2023-05-19T08:40:08.873Z,4.60
2023-05-19T08:42:35.490Z,5.27
2023-05-19T08:45:02.453Z,4.57
2023-05-19T08:47:29.593Z,4.87
2023-05-19T08:50:05.183Z,4.57
2023-05-19T08:52:53.510Z,4.90
2023-05-19T08:55:29.005Z,4.73
2023-05-19T08:57:56.254Z,4.63
2023-05-19T09:00:23.318Z,4.10
2023-05-19T09:03:00.197Z,3.97
2023-05-19T09:05:33.253Z,4.20
2023-05-19T09:08:02.632Z,4.10
2023-05-19T09:10:29.431Z,3.73
2023-05-19T09:12:56.220Z,4.07
2023-05-19T09:15:27.016Z,4.00
2023-05-19T09:18:06.925Z,3.97
2023-05-19T09:20:37.970Z,3.80
2023-05-19T09:23:05.557Z,3.43
2023-05-19T09:25:32.211Z,2.90
2023-05-19T09:27:58.836Z,2.83
2023-05-19T09:30:25.961Z,3.17
2023-05-19T09:32:52.494Z,3.57
2023-05-19T09:35:20.566Z,3.47
2023-05-19T09:37:47.033Z,3.43
2023-05-19T09:40:14.992Z,3.80
2023-05-19T09:42:41.972Z,4.00
2023-05-19T09:45:09.379Z,4.13
2023-05-19T09:47:38.151Z,4.40
2023-05-19T09:50:08.822Z,3.60
2023-05-19T09:52:39.175Z,4.30
2023-05-19T09:55:09.106Z,4.57
2023-05-19T09:57:37.274Z,3.87
2023-05-19T10:00:18.021Z,3.53
2023-05-19T10:02:46.516Z,3.03
2023-05-19T10:05:17.329Z,4.47
2023-05-19T10:07:45.726Z,3.77
2023-05-19T10:10:13.896Z,3.53
2023-05-19T10:12:41.024Z,3.50
2023-05-19T10:15:10.516Z,3.93
2023-05-19T10:17:41.313Z,3.37
2023-05-19T10:20:17.330Z,3.53
2023-05-19T10:22:45.999Z,4.13
2023-05-19T10:25:15.070Z,4.00
2023-05-19T10:27:48.600Z,3.83
2023-05-19T10:30:20.272Z,3.80
2023-05-19T10:32:48.595Z,3.60
2023-05-19T10:35:26.912Z,2.97
2023-05-19T10:37:59.210Z,4.00
2023-05-19T10:40:53.755Z,3.73
2023-05-19T10:43:44.643Z,4.47
2023-05-19T10:46:11.324Z,3.87
2023-05-19T10:48:37.758Z,4.30
2023-05-19T10:51:04.921Z,3.73
2023-05-19T10:53:32.868Z,4.10
2023-05-19T10:56:06.638Z,4.13
2023-05-19T10:58:36.809Z,3.83
2023-05-19T11:01:07.989Z,3.43
2023-05-19T11:03:45.862Z,3.47
2023-05-19T11:06:24.794Z,3.50
2023-05-19T11:08:56.779Z,3.37
2023-05-19T11:11:23.622Z,3.77
2023-05-19T11:13:56.620Z,3.57
2023-05-19T11:16:31.208Z,3.93
2023-05-19T11:19:01.676Z,3.90
2023-05-19T11:21:55.143Z,3.53
2023-05-19T11:24:37.330Z,3.50
2023-05-19T11:27:37.314Z,3.63
2023-05-19T11:30:15.804Z,3.73
2023-05-19T11:32:43.939Z,3.00
2023-05-19T11:35:10.976Z,3.50
2023-05-19T11:37:37.467Z,4.40
2023-05-19T11:40:07.930Z,3.27
2023-05-19T11:42:36.034Z,3.67
2023-05-19T11:45:03.199Z,2.50
2023-05-19T11:47:38.771Z,3.40
2023-05-19T11:50:13.868Z,3.20
2023-05-19T11:52:44.939Z,3.47
2023-05-19T11:55:16.024Z,3.43
2023-05-19T11:58:03.001Z,3.30
2023-05-19T12:00:37.580Z,3.10
2023-05-19T12:03:04.500Z,2.93
2023-05-19T12:05:34.450Z,3.60
2023-05-19T12:08:02.773Z,2.27
2023-05-19T12:10:33.721Z,3.20
2023-05-19T12:13:00.729Z,4.07
2023-05-19T12:15:27.227Z,3.77
2023-05-19T12:17:58.894Z,3.40
2023-05-19T12:20:27.107Z,3.30
2023-05-19T12:22:56.202Z,3.00
2023-05-19T12:25:23.858Z,3.43
2023-05-19T12:27:52.666Z,3.20
2023-05-19T12:30:26.167Z,3.17
2023-05-19T12:32:53.848Z,3.87
2023-05-19T12:35:20.641Z,2.93
2023-05-19T12:37:49.092Z,3.37
2023-05-19T12:40:16.810Z,2.77
2023-05-19T12:42:48.492Z,2.93
2023-05-19T12:45:15.232Z,3.00
2023-05-19T12:47:41.767Z,2.47
2023-05-19T12:50:09.699Z,3.93
2023-05-19T12:52:43.711Z,2.70
2023-05-19T12:55:11.755Z,2.57
2023-05-19T12:57:40.000Z,3.53
2023-05-19T13:00:12.879Z,3.47
2023-05-19T13:02:55.186Z,3.20
2023-05-19T13:05:22.631Z,3.53
2023-05-19T13:07:59.344Z,3.27
2023-05-19T13:10:29.484Z,3.40
2023-05-19T13:12:56.877Z,2.83
2023-05-19T13:15:26.149Z,3.27
2023-05-19T13:17:53.602Z,3.17
2023-05-19T13:20:21.535Z,3.97
2023-05-19T13:22:48.719Z,3.27
2023-05-19T13:25:15.367Z,4.63
2023-05-19T13:27:41.836Z,3.57
2023-05-19T13:30:08.833Z,3.07
2023-05-19T13:32:35.332Z,3.47
2023-05-19T13:35:02.157Z,3.20
2023-05-19T13:37:28.763Z,3.80
2023-05-19T13:39:55.815Z,4.13
2023-05-19T13:42:22.253Z,3.73
2023-05-19T13:44:48.788Z,3.40
2023-05-19T13:47:15.362Z,3.63
2023-05-19T13:49:41.801Z,3.50
2023-05-19T13:52:08.352Z,3.30
2023-05-19T13:54:34.916Z,4.10
2023-05-19T13:57:01.509Z,3.77
2023-05-19T13:59:28.299Z,3.73
2023-05-19T14:01:54.886Z,2.67
2023-05-19T14:04:21.476Z,3.23
2023-05-19T14:06:47.936Z,2.90
2023-05-19T14:09:14.910Z,2.93
2023-05-19T14:11:41.426Z,3.07
2023-05-19T14:14:09.311Z,3.30
2023-05-19T14:16:38.371Z,3.60
2023-05-19T14:19:05.382Z,2.90
2023-05-19T14:21:32.536Z,3.30
2023-05-19T14:23:59.430Z,3.40
2023-05-19T14:26:27.495Z,3.10
2023-05-19T14:28:56.967Z,2.80
2023-05-19T14:31:23.636Z,3.07
2023-05-19T14:33:51.171Z,3.30
2023-05-19T14:36:17.996Z,2.97
2023-05-19T14:38:44.514Z,2.60
2023-05-19T14:41:10.944Z,2.87
2023-05-19T14:43:37.368Z,3.53
2023-05-19T14:46:03.870Z,3.43
2023-05-19T14:48:30.271Z,3.23
2023-05-19T14:50:56.691Z,3.00
2023-05-19T14:53:23.433Z,3.47
2023-05-19T14:55:50.173Z,3.23
2023-05-19T14:58:27.686Z,2.77
2023-05-19T15:00:57.810Z,3.03
2023-05-19T15:03:24.762Z,3.33
2023-05-19T15:05:51.242Z,3.17
2023-05-19T15:08:17.685Z,3.00
2023-05-19T15:10:48.596Z,2.60
2023-05-19T15:13:15.325Z,2.80
2023-05-19T15:15:41.768Z,3.30
2023-05-19T15:18:08.260Z,3.20
2023-05-19T15:20:34.869Z,3.57
2023-05-19T15:23:01.566Z,3.10
2023-05-19T15:25:28.014Z,3.63
2023-05-19T15:27:54.470Z,3.13
2023-05-19T15:30:20.922Z,3.13
2023-05-19T15:32:47.373Z,3.70
2023-05-19T15:35:14.085Z,2.90
2023-05-19T15:37:40.565Z,3.30
2023-05-19T15:40:07.596Z,2.77
2023-05-19T15:42:34.017Z,3.60
2023-05-19T15:45:03.053Z,3.57
2023-05-19T15:47:29.599Z,2.80
2023-05-19T15:49:56.062Z,2.53
2023-05-19T15:52:22.618Z,3.63
2023-05-19T15:54:49.025Z,3.13
2023-05-19T15:57:15.507Z,3.30
2023-05-19T15:59:42.002Z,3.77
2023-05-19T16:02:08.645Z,2.97
2023-05-19T16:04:35.210Z,4.17
2023-05-19T16:07:01.623Z,3.33
2023-05-19T16:09:28.112Z,3.57
2023-05-19T16:11:54.601Z,3.20
2023-05-19T16:14:21.029Z,3.73
2023-05-19T16:16:47.575Z,3.40
2023-05-19T16:19:14.126Z,2.73
2023-05-19T16:21:40.609Z,2.80
2023-05-19T16:24:07.096Z,3.60
2023-05-19T16:26:34.317Z,3.07
2023-05-19T16:29:00.830Z,2.97
2023-05-19T16:31:27.395Z,2.60
2023-05-19T16:33:53.844Z,2.60
2023-05-19T16:36:22.596Z,2.73
2023-05-19T16:38:49.208Z,2.70
2023-05-19T16:41:15.649Z,3.40
2023-05-19T16:43:42.099Z,3.13
2023-05-19T16:46:09.836Z,3.27
2023-05-19T16:48:36.581Z,2.67
2023-05-19T16:51:03.288Z,2.43
2023-05-19T16:53:29.727Z,2.33
2023-05-19T16:55:56.396Z,2.60
2023-05-19T16:58:22.809Z,2.30
2023-05-19T17:00:51.825Z,2.90
2023-05-19T17:03:18.703Z,3.13
2023-05-19T17:05:45.668Z,3.10
2023-05-19T17:08:12.653Z,3.30
2023-05-19T17:10:39.267Z,3.60
2023-05-19T17:13:05.774Z,3.00
2023-05-19T17:15:33.744Z,2.90
2023-05-19T17:18:00.244Z,3.33
2023-05-19T17:20:26.807Z,2.90
2023-05-19T17:22:53.300Z,3.17
2023-05-19T17:25:19.744Z,2.70
2023-05-19T17:27:46.219Z,2.67
2023-05-19T17:30:13.539Z,2.40
2023-05-19T17:32:40.076Z,2.87
2023-05-19T17:35:07.159Z,2.70
2023-05-19T17:37:33.580Z,3.23
2023-05-19T17:40:00.052Z,2.50
2023-05-19T17:42:26.595Z,3.27
2023-05-19T17:44:53.072Z,2.50
2023-05-19T17:47:19.539Z,3.13
2023-05-19T17:49:46.027Z,3.17
2023-05-19T17:52:12.763Z,2.60
2023-05-19T17:54:39.429Z,2.53
2023-05-19T17:57:10.755Z,2.90
2023-05-19T17:59:37.470Z,3.30
2023-05-19T18:02:04.672Z,3.20
2023-05-19T18:04:31.646Z,3.27
2023-05-19T18:06:59.361Z,3.00
2023-05-19T18:09:28.747Z,3.70
2023-05-19T18:11:56.854Z,2.70
2023-05-19T18:14:23.343Z,3.27
2023-05-19T18:16:49.980Z,2.90
2023-05-19T18:19:16.558Z,3.17
2023-05-19T18:21:43.021Z,3.33
2023-05-19T18:24:09.458Z,2.90
2023-05-19T18:26:37.703Z,3.03
2023-05-19T18:29:04.928Z,3.03
2023-05-19T18:31:31.546Z,3.03
2023-05-19T18:33:57.975Z,3.20
2023-05-19T18:36:24.387Z,2.67
2023-05-19T18:38:50.834Z,2.90
2023-05-19T18:41:17.329Z,2.90
2023-05-19T18:43:43.901Z,3.10
2023-05-19T18:46:10.406Z,3.10
2023-05-19T18:48:36.985Z,3.07
2023-05-19T18:51:03.705Z,3.13
2023-05-19T18:53:34.575Z,2.63
2023-05-19T18:56:01.015Z,3.27
2023-05-19T18:58:32.660Z,3.30
2023-05-19T19:00:59.200Z,2.90
2023-05-19T19:03:26.474Z,3.27
2023-05-19T19:05:59.742Z,2.80
2023-05-19T19:08:26.182Z,2.63
2023-05-19T19:10:53.472Z,3.50
2023-05-19T19:13:20.321Z,2.87
2023-05-19T19:15:46.811Z,3.03
2023-05-19T19:18:13.296Z,3.10
2023-05-19T19:20:39.774Z,3.20
2023-05-19T19:23:06.694Z,2.87
2023-05-19T19:25:33.543Z,3.47
2023-05-19T19:28:01.271Z,3.30
2023-05-19T19:30:29.196Z,3.33
2023-05-19T19:32:56.854Z,2.27
2023-05-19T19:35:23.424Z,3.33
2023-05-19T19:37:51.581Z,3.10
2023-05-19T19:40:18.047Z,3.17
2023-05-19T19:42:44.458Z,2.63
2023-05-19T19:45:13.104Z,3.27
2023-05-19T19:47:41.680Z,2.90
2023-05-19T19:50:09.124Z,3.40
2023-05-19T19:52:35.606Z,3.13
2023-05-19T19:55:02.271Z,2.90
2023-05-19T19:57:29.971Z,3.10
2023-05-19T19:59:59.014Z,3.80
2023-05-19T20:02:26.434Z,2.97
2023-05-19T20:04:52.955Z,3.30
2023-05-19T20:07:20.739Z,3.23
2023-05-19T20:09:49.426Z,3.20
2023-05-19T20:12:16.056Z,3.20
2023-05-19T20:14:42.541Z,3.63
2023-05-19T20:17:09.019Z,3.70
2023-05-19T20:19:35.616Z,3.90
2023-05-19T20:22:02.369Z,3.20
2023-05-19T20:24:28.809Z,3.73
2023-05-19T20:26:55.236Z,3.20
2023-05-19T20:29:23.678Z,3.93
2023-05-19T20:31:50.198Z,4.27
2023-05-19T20:34:16.669Z,3.47
2023-05-19T20:36:43.121Z,4.10
2023-05-19T20:39:10.086Z,3.47
2023-05-19T20:41:36.641Z,3.43
2023-05-19T20:44:03.121Z,3.37
2023-05-19T20:46:29.652Z,3.57
2023-05-19T20:48:56.199Z,3.53
2023-05-19T20:51:25.005Z,4.37
2023-05-19T20:53:51.633Z,4.17
2023-05-19T20:56:19.561Z,4.13
2023-05-19T20:58:45.977Z,3.87
2023-05-19T21:01:12.487Z,3.77
2023-05-19T21:03:38.922Z,3.60
2023-05-19T21:06:05.362Z,4.33
2023-05-19T21:08:31.812Z,4.60
2023-05-19T21:10:59.201Z,4.13
2023-05-19T21:13:25.825Z,3.53
2023-05-19T21:15:52.242Z,4.70
2023-05-19T21:18:18.731Z,4.20
2023-05-19T21:20:45.141Z,4.53
2023-05-19T21:23:11.553Z,4.83
2023-05-19T21:25:39.533Z,4.50
2023-05-19T21:28:05.996Z,4.27
2023-05-19T21:30:32.559Z,4.57
2023-05-19T21:32:59.342Z,3.83
2023-05-19T21:35:25.921Z,5.33
2023-05-19T21:37:52.316Z,4.53
2023-05-19T21:40:18.728Z,4.17
2023-05-19T21:42:45.194Z,4.13
2023-05-19T21:45:11.642Z,4.07
2023-05-19T21:47:38.156Z,3.93
2023-05-19T21:50:04.911Z,4.17
2023-05-19T21:52:31.411Z,3.93
2023-05-19T21:54:58.192Z,4.37
2023-05-19T21:57:24.613Z,4.77
2023-05-19T21:59:51.076Z,4.57
2023-05-19T22:02:17.537Z,4.40
2023-05-19T22:04:44.747Z,4.50
2023-05-19T22:07:11.286Z,3.90
2023-05-19T22:09:37.927Z,4.80
2023-05-19T22:12:04.677Z,4.67
2023-05-19T22:14:31.128Z,4.87
2023-05-19T22:16:57.553Z,5.30
2023-05-19T22:19:24.172Z,4.63
2023-05-19T22:21:58.435Z,4.70
2023-05-19T22:24:28.991Z,4.40
2023-05-19T22:26:55.431Z,4.27
2023-05-19T22:29:21.880Z,4.37
2023-05-19T22:31:48.358Z,4.70
2023-05-19T22:34:15.365Z,4.00
2023-05-19T22:36:44.031Z,5.00
2023-05-19T22:39:12.331Z,4.47
2023-05-19T22:41:38.953Z,4.30
2023-05-19T22:44:05.515Z,4.27
2023-05-19T22:46:32.228Z,4.37
2023-05-19T22:48:58.743Z,4.40
2023-05-19T22:51:25.181Z,4.20
2023-05-19T22:53:51.691Z,4.47
2023-05-19T22:56:18.136Z,4.00
2023-05-19T22:58:44.538Z,4.57
2023-05-19T23:01:11.227Z,4.90
2023-05-19T23:03:37.678Z,4.20
2023-05-19T23:06:04.122Z,4.07
2023-05-19T23:08:30.663Z,4.10
2023-05-19T23:11:00.556Z,4.00
2023-05-19T23:13:26.963Z,4.37
2023-05-19T23:15:53.354Z,4.63
2023-05-19T23:18:19.792Z,4.17
2023-05-19T23:20:46.290Z,4.03
2023-05-19T23:23:12.828Z,4.37
2023-05-19T23:25:39.303Z,4.57
2023-05-19T23:28:09.986Z,3.70
2023-05-19T23:30:37.692Z,4.37
2023-05-19T23:33:04.318Z,4.30
2023-05-19T23:35:30.873Z,4.37
2023-05-19T23:37:57.289Z,3.93
2023-05-19T23:40:23.696Z,4.37
2023-05-19T23:42:50.138Z,4.20
2023-05-19T23:45:16.579Z,4.20
2023-05-19T23:47:43.077Z,4.53
2023-05-19T23:50:09.985Z,5.00
2023-05-19T23:52:36.550Z,4.30
2023-05-19T23:55:03.503Z,4.37
2023-05-19T23:57:29.952Z,5.03
2023-05-19T23:59:56.453Z,4.10
